FYRU

Details ICAO FYRU (NDU)
Name RUNDU
Region Namibia
Timezone Africa/Windhoek (UTC+2.0)
Plans Departing 0
Arriving 0
Stats Elevation 3,627 ft / 1,106 m (AMSL)
Location -17.956463° 19.719438°
Runways 1
Magnetic Variation 7.245° W
Sunrise 2017-12-15 04:01:44 UTC / 2017-12-15 06:01:44 Local
Sunset 2017-12-15 17:13:33 UTC / 2017-12-15 19:13:33 Local
Advertisement - Login to hide

Runways

ID Width Length Bearing (true) Bearing (mag) Surface Threshold Offset Overrun Length
08 98 ft / 30 m 10,975 ft / 3,345 m 71.83° 79.07° Asphalt 0 ft / 0 m 0 ft / 0 m
26 98 ft / 30 m 10,975 ft / 3,345 m 251.82° 259.06° Asphalt 0 ft / 0 m 0 ft / 0 m

Map

Weather


0- 5 10 15 20 25 30 35+ Temperature / ° C

Clouds and Precipitation
Forecast for 2017-12-15 12:00 UTC. Updated an hour ago

Ground ~20,000 ft ~40,000 ft Winds

METAR

FYRU 151000Z AUTO 12005KT //// // ////// 33/15 Q1019

TAF

Not found

Frequencies

Unicom 124.80 MHz CTAF
Warning: Do not use this data for real-world aviation or navigation. No guarantee of current accuracy is given.